Time;durP1;ratioP1;P1;durP2;ratioP2;P2;SDS_P1;SDS_P2;PMS_P1;PMS_P2;Temp;Humidity;BMP_temperature;BMP_pressure;BME280_temperature;BME280_humidity;BME280_pressure;Samples;Min_cycle;Max_cycle;Signal;HPM_P1;HPM_P2
2022/08/11 00:00:13;;;;;;;2.88;1.38;;;;;;;18.25;58.00;100452.53;5066188;28;20024;-63
2022/08/11 00:02:43;;;;;;;2.38;1.30;;;;;;;18.24;58.26;100456.94;5062323;28;20029;-62
2022/08/11 00:05:15;;;;;;;2.17;1.70;;;;;;;17.89;57.88;100408.53;5062733;28;20024;-63
2022/08/11 00:07:44;;;;;;;3.60;1.65;;;;;;;18.17;58.22;100457.22;5062418;28;20025;-62
2022/08/11 00:10:15;;;;;;;2.22;1.65;;;;;;;17.82;57.91;100412.31;5062016;28;20017;-62
2022/08/11 00:12:43;;;;;;;2.60;1.67;;;;;;;18.03;58.75;100453.41;5062371;28;20025;-62
2022/08/11 00:15:11;;;;;;;3.15;1.52;;;;;;;18.11;58.52;100461.81;5064039;28;20426;-62
2022/08/11 00:17:38;;;;;;;2.40;1.45;;;;;;;18.08;58.21;100455.84;5062328;28;20341;-62
2022/08/11 00:20:09;;;;;;;2.20;1.38;;;;;;;17.83;58.88;100424.47;5064027;28;20021;-63
2022/08/11 00:22:40;;;;;;;2.45;1.50;;;;;;;18.01;59.21;100475.34;5056363;28;20033;-63
2022/08/11 00:25:18;;;;;;;2.95;1.75;;;;;;;17.90;59.18;100465.25;5064177;28;20059;-63
2022/08/11 00:27:45;;;;;;;2.65;1.48;;;;;;;17.91;59.17;100473.09;5063644;28;20036;-62
2022/08/11 00:30:12;;;;;;;3.00;1.58;;;;;;;17.92;59.65;100472.16;5054444;28;20097;-63
2022/08/11 00:32:42;;;;;;;1.52;1.42;;;;;;;17.59;59.39;100414.91;5043051;28;20214;-62
2022/08/11 00:35:14;;;;;;;3.88;1.50;;;;;;;17.57;59.29;100426.34;5043016;28;20029;-63
2022/08/11 00:37:48;;;;;;;2.95;1.88;;;;;;;17.62;60.07;100437.50;5043968;28;20064;-62
2022/08/11 00:40:22;;;;;;;2.58;1.50;;;;;;;17.72;59.58;100480.78;5059965;28;20036;-63
2022/08/11 00:43:00;;;;;;;2.65;1.60;;;;;;;17.76;60.16;100473.66;5042102;28;20026;-62
2022/08/11 00:45:28;;;;;;;3.42;1.30;;;;;;;17.75;60.25;100475.41;5060247;28;20029;-62
2022/08/11 00:48:27;;;;;;;4.28;1.90;;;;;;;17.73;60.03;100471.16;5062720;28;20025;-62
2022/08/11 00:51:14;;;;;;;2.78;1.70;;;;;;;17.46;60.00;100442.47;5061729;28;20083;-63
2022/08/11 00:54:05;;;;;;;3.33;1.55;;;;;;;17.41;60.52;100439.19;5064034;28;20040;-63
2022/08/11 00:57:07;;;;;;;3.95;1.67;;;;;;;17.58;60.71;100472.59;5063308;28;20246;-62
2022/08/11 00:59:36;;;;;;;;;;;;;;;17.55;60.92;100480.56;5084982;28;20064;-63
2022/08/11 01:02:13;;;;;;;1.83;1.60;;;;;;;17.50;61.23;100485.97;5060681;28;20007;-62
2022/08/11 01:05:14;;;;;;;4.65;1.90;;;;;;;17.54;61.50;100484.97;5063032;28;20016;-62
2022/08/11 01:07:46;;;;;;;5.65;1.92;;;;;;;17.52;61.57;100488.53;5044896;28;20037;-62
2022/08/11 01:10:36;;;;;;;2.90;1.92;;;;;;;17.41;61.80;100487.19;5062626;28;20044;-61
2022/08/11 01:13:14;;;;;;;3.35;2.15;;;;;;;17.43;61.59;100497.59;5060170;28;20013;-62
2022/08/11 01:16:28;;;;;;;5.90;1.90;;;;;;;17.41;61.54;100495.03;5061991;28;20025;-62
2022/08/11 01:19:35;;;;;;;4.72;1.88;;;;;;;17.38;61.73;100497.75;5062388;28;20029;-62
2022/08/11 01:22:39;;;;;;;5.40;1.83;;;;;;;17.36;62.67;100496.97;5060784;28;20394;-61
2022/08/11 01:25:43;;;;;;;4.93;2.03;;;;;;;17.36;62.84;100499.59;5060264;28;20027;-63
2022/08/11 01:28:31;;;;;;;3.80;1.90;;;;;;;17.36;62.71;100507.44;5061390;28;20072;-62
2022/08/11 01:31:33;;;;;;;3.10;2.10;;;;;;;17.35;63.21;100502.25;5060837;28;20210;-62
2022/08/11 01:34:36;;;;;;;4.80;2.28;;;;;;;17.29;63.00;100507.69;5061970;28;20035;-62
2022/08/11 01:37:32;;;;;;;4.60;2.33;;;;;;;16.95;62.88;100446.94;5060299;28;20025;-65
2022/08/11 01:40:16;;;;;;;3.55;2.00;;;;;;;17.26;63.07;100500.84;5062648;28;20048;-63
2022/08/11 01:46:00;;;;;;;7.32;2.28;;;;;;;17.19;62.92;100517.66;5060755;28;20088;-62
2022/08/11 01:48:53;;;;;;;3.05;1.75;;;;;;;17.17;62.71;100506.38;5059174;28;20067;-63
2022/08/11 01:51:44;;;;;;;4.90;2.10;;;;;;;17.20;63.01;100509.75;5062709;28;20044;-62
2022/08/11 01:54:28;;;;;;;5.10;1.85;;;;;;;17.19;63.33;100509.81;5062711;28;20187;-63
2022/08/11 01:57:19;;;;;;;2.83;1.80;;;;;;;17.18;63.71;100515.94;5066634;28;20196;-63
2022/08/11 01:59:49;;;;;;;4.10;1.75;;;;;;;17.11;63.15;100499.59;5046565;28;20314;-61
2022/08/11 02:02:46;;;;;;;3.60;2.13;;;;;;;17.18;63.43;100515.94;5046833;28;20025;-62
2022/08/11 02:05:30;;;;;;;4.32;1.90;;;;;;;17.18;63.42;100519.41;5087091;28;20070;-62
2022/08/11 02:08:09;;;;;;;2.30;1.80;;;;;;;17.11;63.37;100509.22;5086746;28;20031;-62
2022/08/11 02:14:11;;;;;;;2.80;1.83;;;;;;;17.15;64.13;100527.38;5046838;28;20214;-61
2022/08/11 02:17:10;;;;;;;4.18;1.73;;;;;;;17.13;64.44;100523.09;5046552;28;20313;-61
2022/08/11 02:26:24;;;;;;;2.95;1.80;;;;;;;17.03;63.27;100506.84;5045406;28;20025;-61
2022/08/11 02:29:00;;;;;;;2.95;2.00;;;;;;;17.09;63.87;100522.38;5046624;28;20044;-61
2022/08/11 02:34:31;;;;;;;5.63;2.75;;;;;;;17.16;63.97;100536.06;5053899;28;20040;-61
2022/08/11 02:37:02;;;;;;;5.15;2.22;;;;;;;17.17;64.25;100536.06;5046345;28;20030;-62
2022/08/11 02:39:41;;;;;;;5.22;2.00;;;;;;;16.85;63.85;100487.41;5055992;28;20041;-61
2022/08/11 02:42:24;;;;;;;4.90;1.70;;;;;;;17.09;63.88;100538.06;5057933;28;20030;-62
2022/08/11 02:45:11;;;;;;;2.75;1.85;;;;;;;17.07;64.60;100535.50;5050719;28;20195;-62
2022/08/11 02:51:00;;;;;;;4.55;1.90;;;;;;;17.09;64.53;100540.69;5046036;28;20102;-62
2022/08/11 02:53:47;;;;;;;3.83;1.95;;;;;;;17.15;64.37;100542.25;5063912;28;20104;-64
2022/08/11 02:56:43;;;;;;;5.15;2.10;;;;;;;17.14;65.00;100546.59;5064391;28;20032;-61
2022/08/11 02:59:49;;;;;;;3.05;1.90;;;;;;;17.16;65.39;100547.41;5045938;28;20029;-61
2022/08/11 03:02:30;;;;;;;2.28;1.73;;;;;;;17.25;64.66;100556.72;5044585;28;20162;-62
2022/08/11 03:05:10;;;;;;;2.50;1.92;;;;;;;17.20;64.51;100538.56;5045649;28;20032;-61
2022/08/11 03:07:46;;;;;;;8.63;1.98;;;;;;;17.32;64.22;100555.59;5084057;28;20027;-62
2022/08/11 03:16:47;;;;;;;2.78;1.95;;;;;;;17.07;64.41;100514.56;5085508;28;20028;-61
2022/08/11 03:19:33;;;;;;;3.85;1.80;;;;;;;17.12;64.63;100511.78;5054116;28;20025;-61
2022/08/11 03:22:11;;;;;;;2.55;1.80;;;;;;;17.50;63.93;100571.53;5059029;28;20040;-61
2022/08/11 03:24:55;;;;;;;3.85;2.05;;;;;;;17.54;63.90;100565.28;5067797;28;20131;-61
2022/08/11 03:27:57;;;;;;;3.58;2.42;;;;;;;17.56;64.51;100563.47;5063917;28;20213;-61
2022/08/11 03:30:44;;;;;;;5.30;2.00;;;;;;;17.31;64.27;100517.22;5074074;28;20028;-61
2022/08/11 03:36:33;;;;;;;2.88;2.00;;;;;;;17.71;64.24;100564.66;5032870;28;20285;-61
2022/08/11 03:39:02;;;;;;;4.20;1.88;;;;;;;17.73;64.95;100566.34;5043049;28;20156;-60
2022/08/11 03:41:44;;;;;;;3.58;1.92;;;;;;;17.55;65.36;100531.19;5043130;28;20049;-61
2022/08/11 03:44:49;;;;;;;6.35;2.63;;;;;;;17.83;65.14;100560.72;5043165;28;20037;-61
2022/08/11 03:47:34;;;;;;;4.05;2.00;;;;;;;17.85;64.92;100569.41;5008346;28;20334;-62
2022/08/11 03:50:00;;;;;;;4.47;2.08;;;;;;;17.89;64.54;100571.84;5024561;28;20104;-62
2022/08/11 03:52:35;;;;;;;6.00;2.08;;;;;;;17.94;65.23;100572.56;5042898;28;20036;-61
2022/08/11 03:55:20;;;;;;;4.72;2.42;;;;;;;17.78;64.79;100534.72;5042798;28;20043;-61
2022/08/11 03:58:23;;;;;;;3.40;2.17;;;;;;;18.03;65.55;100571.38;5037943;28;20029;-61
2022/08/11 04:01:13;;;;;;;2.60;1.92;;;;;;;18.11;64.92;100577.19;5062683;28;20349;-61
2022/08/11 04:03:57;;;;;;;3.35;2.00;;;;;;;18.06;65.18;100571.25;5038413;28;20029;-61
2022/08/11 04:06:35;;;;;;;4.65;2.17;;;;;;;18.18;64.56;100561.19;5035662;28;20104;-61
2022/08/11 04:09:22;;;;;;;2.15;1.80;;;;;;;18.23;64.98;100561.88;5044597;28;20252;-62
2022/08/11 04:12:25;;;;;;;2.95;2.00;;;;;;;18.32;64.78;100564.13;5044393;28;20297;-62
2022/08/11 04:18:10;;;;;;;2.55;1.85;;;;;;;18.34;65.14;100564.06;5043665;28;20330;-61
2022/08/11 04:20:59;;;;;;;3.47;1.93;;;;;;;18.15;65.65;100535.09;5044299;28;20218;-62
2022/08/11 04:23:43;;;;;;;5.72;2.38;;;;;;;18.37;64.65;100563.94;5044574;28;20030;-61
2022/08/11 04:26:32;;;;;;;2.90;1.83;;;;;;;18.43;64.66;100559.31;5064271;28;20036;-62
2022/08/11 04:29:13;;;;;;;5.07;2.42;;;;;;;18.50;64.62;100562.56;5064244;28;20182;-62
2022/08/11 04:31:50;;;;;;;2.55;2.08;;;;;;;18.56;64.33;100559.69;5045434;28;20052;-61
2022/08/11 04:34:31;;;;;;;3.22;1.80;;;;;;;18.59;64.90;100567.41;5059725;28;20337;-61
2022/08/11 04:40:22;;;;;;;3.90;1.90;;;;;;;18.65;64.32;100557.59;5061374;28;20041;-61
2022/08/11 04:43:21;;;;;;;2.58;1.95;;;;;;;18.78;64.94;100567.53;5062716;28;20079;-61
2022/08/11 04:46:12;;;;;;;2.97;2.30;;;;;;;18.86;64.66;100588.19;5056124;28;20029;-61
2022/08/11 05:01:42;;;;;;;1.75;1.60;;;;;;;20.14;61.20;100545.00;5051019;28;20072;-62
2022/08/11 05:08:08;;;;;;;4.35;2.00;;;;;;;21.32;57.65;100571.63;5046244;28;20036;-63
2022/08/11 05:10:42;;;;;;;3.63;2.00;;;;;;;21.72;55.38;100573.06;5045652;28;20321;-62
2022/08/11 05:35:48;;;;;;;5.15;2.10;;;;;;;21.80;56.36;100592.91;5060460;28;20021;-61
2022/08/11 05:58:02;;;;;;;2.17;1.98;;;;;;;21.43;57.01;100537.66;5050663;28;20036;-62
2022/08/11 06:00:28;;;;;;;3.17;1.93;;;;;;;21.74;57.41;100577.41;5043061;28;20057;-63
2022/08/11 06:03:02;;;;;;;3.80;2.10;;;;;;;21.81;57.71;100578.78;5042678;28;20458;-62
2022/08/11 06:05:42;;;;;;;3.03;1.90;;;;;;;21.60;56.93;100531.53;5042947;28;20029;-62
2022/08/11 06:08:08;;;;;;;6.97;2.10;;;;;;;21.67;57.19;100568.97;5043229;28;20060;-62
2022/08/11 06:10:36;;;;;;;2.95;2.00;;;;;;;21.77;57.79;100575.44;5056893;28;20061;-62
2022/08/11 06:13:04;;;;;;;4.43;2.38;;;;;;;21.88;57.54;100559.06;5049692;28;20029;-62
2022/08/11 06:15:32;;;;;;;4.80;1.95;;;;;;;22.02;57.47;100574.13;5042688;28;20033;-62
2022/08/11 06:18:01;;;;;;;6.10;2.60;;;;;;;22.02;56.55;100574.97;5050118;28;20224;-62
2022/08/11 06:20:35;;;;;;;4.65;2.60;;;;;;;21.93;57.11;100549.09;5062829;28;20032;-60
2022/08/11 06:23:04;;;;;;;5.40;2.38;;;;;;;21.71;56.77;100533.59;5062635;28;20352;-61
2022/08/11 06:25:34;;;;;;;5.50;1.98;;;;;;;21.72;55.23;100530.88;5079336;28;20052;-61
2022/08/11 06:28:04;;;;;;;4.30;2.03;;;;;;;21.85;56.15;100561.88;5064218;28;20112;-62
2022/08/11 06:30:41;;;;;;;3.50;1.73;;;;;;;22.16;55.78;100568.94;5062777;28;20032;-62
2022/08/11 06:33:10;;;;;;;1.63;1.52;;;;;;;22.26;55.80;100581.59;5062606;28;20326;-62
2022/08/11 06:35:44;;;;;;;3.85;1.73;;;;;;;22.21;55.25;100587.97;5062491;28;20225;-61
2022/08/11 06:38:43;;;;;;;3.45;1.90;;;;;;;21.94;55.19;100536.75;5061018;28;20045;-60
2022/08/11 06:41:35;;;;;;;1.92;1.75;;;;;;;22.06;53.65;100587.06;5065186;28;20382;-62
2022/08/11 06:44:06;;;;;;;3.03;1.75;;;;;;;22.21;54.98;100587.97;5064901;28;20096;-61
2022/08/11 06:46:45;;;;;;;3.55;1.70;;;;;;;22.26;54.75;100573.69;5053346;28;20368;-61
2022/08/11 06:52:07;;;;;;;1.75;1.65;;;;;;;22.54;54.38;100578.28;5065958;28;20035;-62
2022/08/11 06:54:35;;;;;;;4.72;1.50;;;;;;;22.61;54.47;100589.38;5065800;28;20021;-61
2022/08/11 07:03:02;;;;;;;4.50;1.77;;;;;;;22.75;53.33;100592.06;5085180;28;20024;-61
2022/08/11 07:05:46;;;;;;;4.80;1.58;;;;;;;22.83;53.45;100589.81;5053394;28;20079;-61
2022/08/11 07:17:19;;;;;;;1.55;1.40;;;;;;;22.53;52.04;100545.78;5045840;28;20053;-62
2022/08/11 07:31:12;;;;;;;2.15;1.30;;;;;;;22.99;52.53;100554.56;5060073;28;20352;-61
2022/08/11 07:33:51;;;;;;;2.33;1.70;;;;;;;23.12;52.88;100567.94;5061879;28;20337;-61
2022/08/11 07:36:18;;;;;;;2.30;1.60;;;;;;;23.30;52.31;100573.91;5062718;28;20040;-61
2022/08/11 07:38:51;;;;;;;2.15;1.77;;;;;;;23.20;52.19;100526.91;5062311;28;20036;-61
2022/08/11 07:41:20;;;;;;;4.05;1.63;;;;;;;23.27;52.20;100522.94;5062864;28;20033;-61
2022/08/11 07:43:50;;;;;;;4.38;2.08;;;;;;;23.36;52.14;100533.88;5059662;28;20039;-61
2022/08/11 07:54:36;;;;;;;2.05;1.20;;;;;;;23.10;46.26;100555.63;5049138;28;20051;-63
2022/08/11 08:19:04;;;;;;;1.35;1.25;;;;;;;24.19;44.36;100563.09;5064149;28;20033;-63
2022/08/11 08:21:31;;;;;;;4.05;1.55;;;;;;;24.20;44.69;100575.38;5070342;28;20034;-63
2022/08/11 08:23:57;;;;;;;4.25;1.40;;;;;;;23.65;45.05;100587.63;5077703;28;20091;-63
2022/08/11 08:31:55;;;;;;;5.70;1.70;;;;;;;23.71;45.14;100574.00;5044833;28;20033;-62
2022/08/11 08:34:21;;;;;;;2.15;1.55;;;;;;;23.90;43.81;100564.94;5043659;28;20052;-64
2022/08/11 08:36:49;;;;;;;1.55;1.30;;;;;;;23.86;44.22;100579.31;5053299;28;20385;-62
2022/08/11 08:39:20;;;;;;;1.80;1.27;;;;;;;23.77;43.72;100530.44;5068737;28;20048;-63
2022/08/11 08:41:51;;;;;;;2.08;1.35;;;;;;;23.87;43.39;100576.59;5083305;28;20100;-62
2022/08/11 08:44:19;;;;;;;1.40;1.30;;;;;;;23.70;42.38;100568.81;5083566;28;20066;-63
2022/08/11 08:46:50;;;;;;;1.40;1.30;;;;;;;23.30;43.90;100536.88;5051098;28;20036;-62
2022/08/11 08:49:21;;;;;;;1.13;1.05;;;;;;;24.04;44.34;100574.66;5058031;28;20041;-61
2022/08/11 08:51:52;;;;;;;5.47;1.40;;;;;;;24.15;42.71;100563.41;5063274;28;20285;-62
2022/08/11 08:54:22;;;;;;;1.98;1.80;;;;;;;24.32;42.74;100564.94;5065817;28;20437;-61
2022/08/11 08:56:53;;;;;;;3.30;1.30;;;;;;;24.25;42.12;100554.75;5064591;28;20332;-62
2022/08/11 08:59:21;;;;;;;3.95;1.90;;;;;;;24.23;41.79;100574.34;5083240;28;20032;-63
2022/08/11 09:01:56;;;;;;;1.33;1.23;;;;;;;24.60;42.82;100564.88;5047412;28;20088;-61
2022/08/11 09:04:22;;;;;;;2.20;1.25;;;;;;;24.46;41.01;100559.59;5057389;28;20275;-62
2022/08/11 09:06:49;;;;;;;1.55;1.20;;;;;;;24.23;40.82;100574.34;5063106;28;20051;-62
2022/08/11 09:09:15;;;;;;;1.35;1.13;;;;;;;24.50;41.08;100557.59;5058296;28;20025;-61
2022/08/11 09:11:54;;;;;;;1.63;1.30;;;;;;;24.79;40.97;100555.69;5060959;28;20135;-62
2022/08/11 09:14:24;;;;;;;5.00;2.17;;;;;;;25.06;41.47;100563.56;5054237;28;20217;-61
2022/08/11 09:16:51;;;;;;;2.00;1.27;;;;;;;24.81;40.76;100540.53;5071499;28;20032;-61
2022/08/11 09:19:19;;;;;;;1.30;1.20;;;;;;;24.67;40.10;100516.75;5048148;28;20029;-62
2022/08/11 09:27:34;;;;;;;1.42;1.33;;;;;;;24.70;40.06;100501.53;5049380;28;20033;-62
2022/08/11 09:30:00;;;;;;;1.23;1.23;;;;;;;24.85;39.97;100549.97;5061574;28;20123;-62
2022/08/11 09:32:28;;;;;;;1.40;1.30;;;;;;;24.78;39.87;100551.34;5062881;28;20091;-62
2022/08/11 09:34:54;;;;;;;4.95;1.30;;;;;;;25.04;41.03;100552.25;5044323;28;20333;-61
2022/08/11 09:40:28;;;;;;;6.55;1.10;;;;;;;25.04;39.56;100540.75;5062455;28;20033;-61
2022/08/11 09:45:50;;;;;;;2.83;1.50;;;;;;;24.81;39.09;100508.72;5063840;28;20088;-62
2022/08/11 09:48:25;;;;;;;2.05;1.27;;;;;;;24.88;38.88;100549.75;5048002;28;20093;-62
2022/08/11 09:50:54;;;;;;;2.00;1.33;;;;;;;24.86;39.33;100509.28;5062478;28;20037;-62
2022/08/11 09:53:21;;;;;;;1.63;1.30;;;;;;;25.24;38.81;100542.91;5062609;28;20325;-61
2022/08/11 09:55:48;;;;;;;2.25;1.30;;;;;;;25.08;38.83;100521.91;5042092;28;20025;-61
2022/08/11 09:58:17;;;;;;;2.20;1.95;;;;;;;25.31;39.29;100530.94;5075202;28;20028;-61
2022/08/11 10:00:47;;;;;;;1.77;1.23;;;;;;;25.05;38.06;100529.22;5065350;28;20025;-62
2022/08/11 10:03:22;;;;;;;2.38;1.40;;;;;;;24.91;37.77;100549.56;5042433;28;20029;-62
2022/08/11 10:08:41;;;;;;;1.75;1.30;;;;;;;25.18;38.44;100540.66;5042515;28;20112;-62
2022/08/11 10:11:13;;;;;;;1.30;1.20;;;;;;;25.32;38.14;100540.59;5042731;28;20021;-62
2022/08/11 10:16:29;;;;;;;2.10;1.30;;;;;;;25.48;38.37;100539.50;5051056;28;20041;-62
2022/08/11 10:18:58;;;;;;;1.48;1.38;;;;;;;25.55;37.68;100535.47;5063980;28;20095;-62
2022/08/11 10:27:18;;;;;;;1.50;1.40;;;;;;;25.60;38.84;100516.59;5046247;28;20337;-62
2022/08/11 10:35:17;;;;;;;2.05;1.48;;;;;;;25.68;39.90;100535.44;5070234;28;20037;-62
2022/08/11 10:37:45;;;;;;;4.07;1.50;;;;;;;25.52;39.90;100534.84;5082292;28;20351;-62
2022/08/11 10:40:21;;;;;;;1.83;1.70;;;;;;;25.33;40.26;100494.56;5061310;28;20036;-62
2022/08/11 10:43:09;;;;;;;2.03;1.35;;;;;;;25.21;40.17;100482.13;5033487;28;20237;-62
2022/08/11 10:48:29;;;;;;;1.35;1.25;;;;;;;25.21;40.26;100516.59;5065623;28;20035;-62
2022/08/11 10:51:13;;;;;;;2.65;1.40;;;;;;;25.10;39.61;100517.34;5067273;28;20117;-62
2022/08/11 10:59:15;;;;;;;1.65;1.30;;;;;;;24.77;38.07;100517.84;5044333;28;20063;-63
2022/08/11 11:01:42;;;;;;;2.38;1.40;;;;;;;24.75;39.38;100464.94;5060297;28;20082;-62
2022/08/11 11:04:23;;;;;;;2.25;1.20;;;;;;;25.17;38.65;100515.13;5065310;28;20239;-63
2022/08/11 11:07:12;;;;;;;1.50;1.40;;;;;;;24.67;37.71;100508.81;5065422;28;20044;-63
2022/08/11 11:10:05;;;;;;;1.27;1.17;;;;;;;25.00;39.06;100495.09;5065358;28;20036;-63
2022/08/11 11:18:38;;;;;;;3.35;1.30;;;;;;;25.11;37.45;100496.97;5064224;28;20060;-63
2022/08/11 11:21:10;;;;;;;1.35;1.25;;;;;;;24.93;37.31;100443.47;5048504;28;20322;-62
2022/08/11 11:23:55;;;;;;;1.90;1.15;;;;;;;25.41;37.04;100490.50;5084156;28;20198;-62
2022/08/11 11:26:31;;;;;;;2.03;1.42;;;;;;;25.39;37.19;100484.47;5045125;28;20029;-62
2022/08/11 11:29:24;;;;;;;2.92;1.00;;;;;;;25.46;36.98;100477.78;5044996;28;20030;-62
2022/08/11 11:32:27;;;;;;;1.10;1.10;;;;;;;25.47;36.98;100479.47;5027242;28;20342;-62
2022/08/11 11:35:17;;;;;;;1.65;1.55;;;;;;;25.57;37.59;100483.16;5051098;28;20314;-63
2022/08/11 11:37:49;;;;;;;2.03;1.33;;;;;;;25.63;37.50;100477.41;5080452;28;20044;-62
2022/08/11 11:40:21;;;;;;;4.00;1.50;;;;;;;25.41;37.75;100438.31;5084457;28;20378;-62
2022/08/11 11:42:47;;;;;;;;;;;;;;;25.65;38.01;100487.91;5050717;28;20036;-65
2022/08/11 11:45:21;;;;;;;3.08;1.30;;;;;;;25.60;37.44;100490.06;5061226;28;19912;-62
2022/08/11 11:47:51;;;;;;;2.92;1.50;;;;;;;25.36;38.57;100447.56;5064443;28;20037;-62
2022/08/11 11:50:25;;;;;;;1.85;1.40;;;;;;;25.43;38.69;100447.00;5063268;28;20083;-60
2022/08/11 11:52:52;;;;;;;1.45;1.35;;;;;;;25.51;39.43;100470.34;5046774;28;20025;-62
2022/08/11 11:55:21;;;;;;;4.43;1.60;;;;;;;25.28;38.26;100458.66;5064807;28;20190;-62
2022/08/11 12:03:19;;;;;;;3.50;1.27;;;;;;;25.09;38.30;100475.03;5076075;28;20044;-62
2022/08/11 12:05:45;;;;;;;2.03;1.55;;;;;;;25.11;39.49;100466.03;5044132;28;20027;-62
2022/08/11 12:08:14;;;;;;;1.70;1.30;;;;;;;25.23;38.87;100469.59;5044074;28;20055;-61
2022/08/11 12:10:46;;;;;;;2.55;1.60;;;;;;;25.16;39.04;100426.75;5051484;28;20044;-62
2022/08/11 12:16:02;;;;;;;1.80;1.33;;;;;;;25.37;37.86;100458.06;5053223;28;20020;-62
2022/08/11 12:18:38;;;;;;;2.65;1.42;;;;;;;25.35;37.30;100461.78;5058449;28;20029;-62
2022/08/11 12:21:06;;;;;;;2.65;1.33;;;;;;;25.39;37.85;100460.59;5045791;28;20028;-62
2022/08/11 12:29:26;;;;;;;2.75;1.48;;;;;;;25.09;36.61;100461.78;5022112;28;20129;-62
2022/08/11 12:31:57;;;;;;;1.55;1.27;;;;;;;25.26;37.39;100456.13;5039885;28;20037;-61
2022/08/11 12:34:26;;;;;;;2.65;1.60;;;;;;;25.38;36.95;100464.19;5056665;28;20025;-62
2022/08/11 12:37:04;;;;;;;1.50;1.40;;;;;;;25.22;37.46;100414.88;5054898;28;20048;-61
2022/08/11 12:45:26;;;;;;;1.58;1.38;;;;;;;25.56;36.63;100454.94;5043416;28;20041;-62
2022/08/11 12:54:10;;;;;;;6.10;1.63;;;;;;;25.66;38.11;100466.56;5062156;28;20025;-62
2022/08/11 13:05:07;;;;;;;3.20;1.30;;;;;;;25.38;37.17;100406.69;5046253;28;20074;-61
2022/08/11 13:07:35;;;;;;;2.45;1.58;;;;;;;25.62;37.63;100440.38;5055893;28;20359;-61
2022/08/11 13:10:04;;;;;;;1.45;1.35;;;;;;;25.55;37.39;100453.22;5072740;28;20028;-62
2022/08/11 13:12:47;;;;;;;2.22;1.60;;;;;;;25.56;37.65;100446.97;5060742;28;20037;-62
2022/08/11 13:15:19;;;;;;;7.10;1.90;;;;;;;25.65;37.94;100442.81;5059989;28;20021;-61
2022/08/11 13:17:48;;;;;;;4.05;1.88;;;;;;;25.69;39.01;100443.44;5053691;28;20028;-61
2022/08/11 13:20:21;;;;;;;4.20;1.83;;;;;;;25.57;37.92;100440.72;5044766;28;20172;-62
2022/08/11 13:22:49;;;;;;;5.22;1.98;;;;;;;25.53;37.83;100449.00;5056290;28;20062;-62
2022/08/11 13:25:17;;;;;;;1.55;1.45;;;;;;;25.57;37.62;100439.84;5052397;28;20021;-63
2022/08/11 13:27:45;;;;;;;1.70;1.60;;;;;;;25.54;38.17;100443.59;5063142;28;20083;-62
2022/08/11 13:32:59;;;;;;;2.53;1.70;;;;;;;25.46;37.01;100445.94;5044886;28;20117;-61
2022/08/11 13:35:27;;;;;;;1.58;1.48;;;;;;;25.54;37.83;100443.59;5075482;28;20021;-61
2022/08/11 13:37:55;;;;;;;2.17;1.55;;;;;;;25.47;38.43;100442.34;5078316;28;20117;-61
2022/08/11 13:40:23;;;;;;;2.92;1.40;;;;;;;25.43;36.43;100451.47;5058996;28;20053;-62
2022/08/11 13:42:51;;;;;;;3.08;1.70;;;;;;;25.34;37.29;100407.91;5049478;28;20048;-61
2022/08/11 13:45:19;;;;;;;3.08;1.70;;;;;;;25.48;37.91;100421.00;5059658;28;20229;-62
2022/08/11 13:47:45;;;;;;;1.60;1.42;;;;;;;25.57;37.71;100424.78;5042196;28;20076;-62
2022/08/11 13:50:13;;;;;;;3.03;1.50;;;;;;;25.54;36.62;100416.19;5044672;28;20026;-61
2022/08/11 13:52:40;;;;;;;3.35;1.83;;;;;;;25.58;36.81;100429.16;5066233;28;20020;-62
2022/08/11 13:55:20;;;;;;;1.58;1.38;;;;;;;25.37;36.04;100422.72;5066477;28;20037;-63
2022/08/11 13:57:51;;;;;;;3.50;1.63;;;;;;;25.40;36.26;100441.94;5042152;28;20056;-62
2022/08/11 14:00:17;;;;;;;3.00;1.50;;;;;;;25.49;37.01;100422.69;5052393;28;20024;-62
2022/08/11 14:02:47;;;;;;;2.88;1.88;;;;;;;25.52;37.56;100420.78;5085977;28;20056;-62
2022/08/11 14:05:18;;;;;;;1.95;1.75;;;;;;;25.31;37.36;100390.41;5048782;28;20025;-62
2022/08/11 14:07:54;;;;;;;1.75;1.48;;;;;;;25.47;37.21;100416.66;5047517;28;20025;-62
2022/08/11 14:10:24;;;;;;;2.90;1.42;;;;;;;25.48;36.96;100430.75;5063322;28;20024;-62
2022/08/11 14:15:45;;;;;;;1.73;1.60;;;;;;;25.31;36.34;100411.63;5063709;28;20033;-62
2022/08/11 14:18:19;;;;;;;2.05;1.50;;;;;;;25.39;36.86;100410.22;5064740;28;20029;-61
2022/08/11 14:23:39;;;;;;;4.53;1.40;;;;;;;25.28;37.52;100405.63;5064139;28;20061;-62
2022/08/11 14:29:07;;;;;;;2.25;1.70;;;;;;;25.10;37.32;100368.88;5066238;28;20032;-62
2022/08/11 14:31:35;;;;;;;1.58;1.48;;;;;;;25.33;37.78;100400.88;5061050;28;20032;-62
2022/08/11 14:34:05;;;;;;;2.83;1.50;;;;;;;25.38;38.38;100396.09;5064421;28;20032;-62
2022/08/11 14:36:36;;;;;;;2.00;1.75;;;;;;;25.32;38.39;100399.19;5066044;28;20024;-61
2022/08/11 14:39:07;;;;;;;4.50;1.70;;;;;;;25.35;37.98;100390.16;5065114;28;20041;-61
2022/08/11 14:47:04;;;;;;;4.22;1.80;;;;;;;25.08;39.27;100352.25;5047623;28;20072;-61
2022/08/11 14:49:35;;;;;;;2.70;1.63;;;;;;;25.20;38.19;100390.28;5058876;28;20066;-62
2022/08/11 14:52:07;;;;;;;3.45;1.92;;;;;;;24.98;38.85;100344.13;5063123;28;20246;-62
2022/08/11 14:57:20;;;;;;;2.00;1.77;;;;;;;25.20;38.28;100382.34;5061404;28;20029;-60
2022/08/11 14:59:48;;;;;;;2.35;1.52;;;;;;;25.01;37.93;100344.84;5051088;28;20032;-62
2022/08/11 15:05:01;;;;;;;3.00;1.90;;;;;;;24.85;37.69;100345.91;5050896;28;20306;-62
2022/08/11 15:07:31;;;;;;;4.70;2.03;;;;;;;24.91;37.14;100334.03;5070524;28;20053;-61
2022/08/11 15:09:59;;;;;;;3.50;1.80;;;;;;;25.17;37.42;100377.25;5067370;28;20035;-61
2022/08/11 15:12:26;;;;;;;2.35;1.42;;;;;;;25.19;37.72;100377.97;5067230;28;20024;-61
2022/08/11 15:17:38;;;;;;;2.40;1.67;;;;;;;25.18;38.54;100383.41;5064786;28;20021;-62
2022/08/11 15:25:38;;;;;;;2.33;1.70;;;;;;;25.05;39.00;100384.25;5062917;28;20190;-62
2022/08/11 15:39:22;;;;;;;4.15;1.75;;;;;;;24.99;39.58;100384.72;5060827;28;20069;-62
2022/08/11 15:47:56;;;;;;;4.22;1.70;;;;;;;24.64;38.79;100337.69;5064487;28;20028;-62
2022/08/11 15:50:28;;;;;;;3.85;1.85;;;;;;;24.93;39.09;100379.84;5063139;28;20021;-62
2022/08/11 15:53:10;;;;;;;1.90;1.70;;;;;;;24.89;39.40;100384.50;5060685;28;20067;-62
2022/08/11 15:55:38;;;;;;;3.25;2.10;;;;;;;24.87;38.96;100375.81;5063947;28;20262;-62
2022/08/11 16:04:10;;;;;;;2.97;2.10;;;;;;;24.81;39.42;100386.84;5061365;28;20202;-62
2022/08/11 16:07:00;;;;;;;2.78;1.92;;;;;;;24.70;39.55;100378.78;5060190;28;20035;-62
2022/08/11 16:09:35;;;;;;;2.95;1.92;;;;;;;24.72;40.05;100382.19;5058467;28;20045;-62
2022/08/11 16:12:03;;;;;;;1.98;1.77;;;;;;;24.72;40.16;100382.19;5062209;28;20028;-62
2022/08/11 16:17:20;;;;;;;4.60;2.10;;;;;;;24.39;40.02;100334.06;5043782;28;20229;-62
2022/08/11 16:19:48;;;;;;;5.10;2.30;;;;;;;24.40;39.98;100327.81;5057689;28;20091;-61
2022/08/11 16:22:27;;;;;;;4.88;2.10;;;;;;;24.34;40.19;100328.22;5062063;28;20096;-62
2022/08/11 16:24:55;;;;;;;5.25;2.13;;;;;;;24.58;40.59;100380.47;5061305;28;20033;-61
2022/08/11 16:27:21;;;;;;;4.90;2.20;;;;;;;24.55;40.43;100375.38;5059653;28;20214;-62
2022/08/11 16:29:50;;;;;;;4.15;2.13;;;;;;;24.52;40.80;100365.84;5053524;28;20033;-62
2022/08/11 16:32:20;;;;;;;3.53;2.13;;;;;;;24.24;41.09;100335.97;5079658;28;20032;-61
2022/08/11 16:40:48;;;;;;;4.60;2.75;;;;;;;24.44;41.45;100376.09;5068164;28;20261;-63
2022/08/11 16:49:05;;;;;;;4.43;2.33;;;;;;;24.30;41.80;100391.16;5043999;28;20096;-62
2022/08/11 16:51:32;;;;;;;2.38;1.90;;;;;;;24.22;42.44;100371.44;5046581;28;20131;-63
2022/08/11 16:53:57;;;;;;;3.00;2.00;;;;;;;24.21;42.32;100378.50;5063119;28;20045;-63
2022/08/11 16:56:44;;;;;;;5.47;2.38;;;;;;;24.16;43.34;100406.25;5082614;28;20059;-62
2022/08/11 16:59:23;;;;;;;6.82;2.22;;;;;;;24.08;43.27;100383.78;5083438;28;20017;-62
2022/08/11 17:01:54;;;;;;;5.75;2.75;;;;;;;24.04;43.55;100389.41;5054335;28;20211;-61
2022/08/11 17:13:07;;;;;;;5.72;3.20;;;;;;;23.76;44.07;100383.25;5082145;28;20082;-62
2022/08/11 17:18:41;;;;;;;5.38;2.40;;;;;;;23.68;44.32;100417.28;5057015;28;20040;-63
2022/08/11 17:21:16;;;;;;;5.53;3.35;;;;;;;23.56;45.26;100393.34;5062629;28;20023;-63